sensor_id;sensor_type;location;lat;lon;timestamp;temperature;humidity
79055;DHT22;68452;47.186;-1.528;2023-03-24T00:00:44;12.80;81.30
79055;DHT22;68452;47.186;-1.528;2023-03-24T00:03:10;12.80;81.10
79055;DHT22;68452;47.186;-1.528;2023-03-24T00:05:36;12.90;81.40
79055;DHT22;68452;47.186;-1.528;2023-03-24T00:08:03;12.80;81.00
79055;DHT22;68452;47.186;-1.528;2023-03-24T00:10:30;12.80;80.90
79055;DHT22;68452;47.186;-1.528;2023-03-24T00:12:59;12.80;81.10
79055;DHT22;68452;47.186;-1.528;2023-03-24T00:15:26;12.80;81.10
79055;DHT22;68452;47.186;-1.528;2023-03-24T00:17:52;12.80;81.30
79055;DHT22;68452;47.186;-1.528;2023-03-24T00:20:21;12.80;81.10
79055;DHT22;68452;47.186;-1.528;2023-03-24T00:22:50;12.80;80.90
79055;DHT22;68452;47.186;-1.528;2023-03-24T00:25:23;12.80;81.00
79055;DHT22;68452;47.186;-1.528;2023-03-24T00:27:53;12.80;80.80
79055;DHT22;68452;47.186;-1.528;2023-03-24T00:30:19;12.80;81.00
79055;DHT22;68452;47.186;-1.528;2023-03-24T00:32:45;12.70;80.90
79055;DHT22;68452;47.186;-1.528;2023-03-24T00:35:13;12.70;80.90
79055;DHT22;68452;47.186;-1.528;2023-03-24T00:37:40;12.70;80.80
79055;DHT22;68452;47.186;-1.528;2023-03-24T00:40:09;12.70;80.60
79055;DHT22;68452;47.186;-1.528;2023-03-24T00:42:39;12.70;80.50
79055;DHT22;68452;47.186;-1.528;2023-03-24T00:45:07;12.70;80.80
79055;DHT22;68452;47.186;-1.528;2023-03-24T00:47:37;12.70;80.90
79055;DHT22;68452;47.186;-1.528;2023-03-24T00:50:08;12.70;80.80
79055;DHT22;68452;47.186;-1.528;2023-03-24T00:52:35;12.70;80.80
79055;DHT22;68452;47.186;-1.528;2023-03-24T00:55:04;12.70;80.70
79055;DHT22;68452;47.186;-1.528;2023-03-24T00:57:31;12.70;80.80
79055;DHT22;68452;47.186;-1.528;2023-03-24T01:00:03;12.70;80.80
79055;DHT22;68452;47.186;-1.528;2023-03-24T01:02:38;12.70;80.80
79055;DHT22;68452;47.186;-1.528;2023-03-24T01:05:05;12.70;80.90
79055;DHT22;68452;47.186;-1.528;2023-03-24T01:07:31;12.70;80.90
79055;DHT22;68452;47.186;-1.528;2023-03-24T01:09:58;12.70;80.90
79055;DHT22;68452;47.186;-1.528;2023-03-24T01:12:29;12.70;81.00
79055;DHT22;68452;47.186;-1.528;2023-03-24T01:14:58;12.70;80.90
79055;DHT22;68452;47.186;-1.528;2023-03-24T01:17:24;12.70;80.70
79055;DHT22;68452;47.186;-1.528;2023-03-24T01:19:54;12.70;80.70
79055;DHT22;68452;47.186;-1.528;2023-03-24T01:22:21;12.70;80.80
79055;DHT22;68452;47.186;-1.528;2023-03-24T01:24:48;12.70;80.70
79055;DHT22;68452;47.186;-1.528;2023-03-24T01:27:14;12.70;80.60
79055;DHT22;68452;47.186;-1.528;2023-03-24T01:29:41;12.70;80.70
79055;DHT22;68452;47.186;-1.528;2023-03-24T01:32:07;12.70;80.70
79055;DHT22;68452;47.186;-1.528;2023-03-24T01:34:34;12.70;80.60
79055;DHT22;68452;47.186;-1.528;2023-03-24T01:37:00;12.70;80.50
79055;DHT22;68452;47.186;-1.528;2023-03-24T01:39:27;12.70;80.40
79055;DHT22;68452;47.186;-1.528;2023-03-24T01:41:54;12.70;80.50
79055;DHT22;68452;47.186;-1.528;2023-03-24T01:46:53;12.70;80.40
79055;DHT22;68452;47.186;-1.528;2023-03-24T01:49:20;12.70;80.20
79055;DHT22;68452;47.186;-1.528;2023-03-24T01:51:51;12.70;80.30
79055;DHT22;68452;47.186;-1.528;2023-03-24T01:59:41;12.70;80.40
79055;DHT22;68452;47.186;-1.528;2023-03-24T02:02:09;12.70;80.20
79055;DHT22;68452;47.186;-1.528;2023-03-24T02:04:56;12.70;80.50
79055;DHT22;68452;47.186;-1.528;2023-03-24T02:07:36;12.70;80.10
79055;DHT22;68452;47.186;-1.528;2023-03-24T02:10:10;12.70;80.50
79055;DHT22;68452;47.186;-1.528;2023-03-24T02:12:38;12.70;80.20
79055;DHT22;68452;47.186;-1.528;2023-03-24T02:15:06;12.70;80.10
79055;DHT22;68452;47.186;-1.528;2023-03-24T02:20:27;12.70;80.20
79055;DHT22;68452;47.186;-1.528;2023-03-24T02:32:03;12.60;80.20
79055;DHT22;68452;47.186;-1.528;2023-03-24T02:37:40;12.60;79.80
79055;DHT22;68452;47.186;-1.528;2023-03-24T02:54:24;12.60;79.10
79055;DHT22;68452;47.186;-1.528;2023-03-24T02:57:28;12.50;79.00
79055;DHT22;68452;47.186;-1.528;2023-03-24T02:59:59;12.50;79.00
79055;DHT22;68452;47.186;-1.528;2023-03-24T03:02:38;12.50;78.90
79055;DHT22;68452;47.186;-1.528;2023-03-24T03:05:16;12.50;79.10
79055;DHT22;68452;47.186;-1.528;2023-03-24T03:07:44;12.50;79.20
79055;DHT22;68452;47.186;-1.528;2023-03-24T03:10:20;12.50;79.10
79055;DHT22;68452;47.186;-1.528;2023-03-24T03:12:52;12.50;79.10
79055;DHT22;68452;47.186;-1.528;2023-03-24T03:15:33;12.50;78.90
79055;DHT22;68452;47.186;-1.528;2023-03-24T03:18:18;12.50;78.80
79055;DHT22;68452;47.186;-1.528;2023-03-24T03:20:51;12.50;79.00
79055;DHT22;68452;47.186;-1.528;2023-03-24T03:23:41;12.40;78.80
79055;DHT22;68452;47.186;-1.528;2023-03-24T03:26:13;12.40;79.10
79055;DHT22;68452;47.186;-1.528;2023-03-24T03:28:43;12.40;79.00
79055;DHT22;68452;47.186;-1.528;2023-03-24T03:31:18;12.40;79.00
79055;DHT22;68452;47.186;-1.528;2023-03-24T03:34:16;12.40;79.20
79055;DHT22;68452;47.186;-1.528;2023-03-24T03:36:56;12.40;79.10
79055;DHT22;68452;47.186;-1.528;2023-03-24T03:39:28;12.40;79.00
79055;DHT22;68452;47.186;-1.528;2023-03-24T03:41:56;12.40;78.80
79055;DHT22;68452;47.186;-1.528;2023-03-24T03:44:22;12.40;78.90
79055;DHT22;68452;47.186;-1.528;2023-03-24T03:46:48;12.40;78.50
79055;DHT22;68452;47.186;-1.528;2023-03-24T03:49:14;12.40;78.80
79055;DHT22;68452;47.186;-1.528;2023-03-24T03:51:41;12.40;78.70
79055;DHT22;68452;47.186;-1.528;2023-03-24T03:54:10;12.40;78.70
79055;DHT22;68452;47.186;-1.528;2023-03-24T03:56:37;12.40;78.70
79055;DHT22;68452;47.186;-1.528;2023-03-24T03:59:05;12.30;78.70
79055;DHT22;68452;47.186;-1.528;2023-03-24T04:01:33;12.30;78.60
79055;DHT22;68452;47.186;-1.528;2023-03-24T04:06:51;12.30;78.50
79055;DHT22;68452;47.186;-1.528;2023-03-24T04:09:34;12.20;78.20
79055;DHT22;68452;47.186;-1.528;2023-03-24T04:12:22;12.20;78.40
79055;DHT22;68452;47.186;-1.528;2023-03-24T04:34:29;12.10;78.30
79055;DHT22;68452;47.186;-1.528;2023-03-24T04:36:44;12.10;78.40
79055;DHT22;68452;47.186;-1.528;2023-03-24T04:39:20;12.10;78.30
79055;DHT22;68452;47.186;-1.528;2023-03-24T04:41:57;12.10;78.20
79055;DHT22;68452;47.186;-1.528;2023-03-24T04:44:26;12.10;78.20
79055;DHT22;68452;47.186;-1.528;2023-03-24T04:46:55;12.00;78.20
79055;DHT22;68452;47.186;-1.528;2023-03-24T04:49:23;12.10;78.20
79055;DHT22;68452;47.186;-1.528;2023-03-24T04:51:50;12.10;78.00
79055;DHT22;68452;47.186;-1.528;2023-03-24T04:54:17;12.00;77.80
79055;DHT22;68452;47.186;-1.528;2023-03-24T04:56:45;12.00;78.00
79055;DHT22;68452;47.186;-1.528;2023-03-24T04:59:13;12.10;77.90
79055;DHT22;68452;47.186;-1.528;2023-03-24T05:01:40;12.10;77.90
79055;DHT22;68452;47.186;-1.528;2023-03-24T05:04:06;12.10;77.80
79055;DHT22;68452;47.186;-1.528;2023-03-24T05:06:33;12.10;77.80
79055;DHT22;68452;47.186;-1.528;2023-03-24T05:08:59;12.10;77.90
79055;DHT22;68452;47.186;-1.528;2023-03-24T05:11:25;12.10;77.80
79055;DHT22;68452;47.186;-1.528;2023-03-24T05:13:52;12.10;77.80
79055;DHT22;68452;47.186;-1.528;2023-03-24T05:16:18;12.10;77.80
79055;DHT22;68452;47.186;-1.528;2023-03-24T05:18:44;12.10;77.70
79055;DHT22;68452;47.186;-1.528;2023-03-24T05:21:11;12.10;77.70
79055;DHT22;68452;47.186;-1.528;2023-03-24T05:23:37;12.10;77.50
79055;DHT22;68452;47.186;-1.528;2023-03-24T05:26:04;12.00;77.50
79055;DHT22;68452;47.186;-1.528;2023-03-24T05:28:30;12.00;77.50
79055;DHT22;68452;47.186;-1.528;2023-03-24T05:30:56;12.00;77.60
79055;DHT22;68452;47.186;-1.528;2023-03-24T05:33:22;12.00;77.70
79055;DHT22;68452;47.186;-1.528;2023-03-24T05:35:48;12.00;77.50
79055;DHT22;68452;47.186;-1.528;2023-03-24T05:38:13;12.00;77.50
79055;DHT22;68452;47.186;-1.528;2023-03-24T05:40:39;12.00;77.40
79055;DHT22;68452;47.186;-1.528;2023-03-24T05:43:05;11.90;77.40
79055;DHT22;68452;47.186;-1.528;2023-03-24T05:45:33;11.90;77.70
79055;DHT22;68452;47.186;-1.528;2023-03-24T05:47:58;12.00;77.70
79055;DHT22;68452;47.186;-1.528;2023-03-24T05:50:24;12.00;77.60
79055;DHT22;68452;47.186;-1.528;2023-03-24T05:52:50;11.90;77.30
79055;DHT22;68452;47.186;-1.528;2023-03-24T05:55:17;11.90;77.50
79055;DHT22;68452;47.186;-1.528;2023-03-24T05:57:44;11.90;77.50
79055;DHT22;68452;47.186;-1.528;2023-03-24T06:00:11;11.90;77.50
79055;DHT22;68452;47.186;-1.528;2023-03-24T06:02:42;11.90;77.40
79055;DHT22;68452;47.186;-1.528;2023-03-24T06:05:08;11.90;77.30
79055;DHT22;68452;47.186;-1.528;2023-03-24T06:07:35;11.90;77.30
79055;DHT22;68452;47.186;-1.528;2023-03-24T06:10:03;11.90;77.40
79055;DHT22;68452;47.186;-1.528;2023-03-24T06:12:29;11.90;77.20
79055;DHT22;68452;47.186;-1.528;2023-03-24T06:14:56;11.90;77.40
79055;DHT22;68452;47.186;-1.528;2023-03-24T06:17:23;11.90;77.40
79055;DHT22;68452;47.186;-1.528;2023-03-24T06:19:49;11.80;77.50
79055;DHT22;68452;47.186;-1.528;2023-03-24T06:22:19;11.90;77.20
79055;DHT22;68452;47.186;-1.528;2023-03-24T06:24:46;11.80;77.20
79055;DHT22;68452;47.186;-1.528;2023-03-24T06:27:12;11.90;77.10
79055;DHT22;68452;47.186;-1.528;2023-03-24T06:29:39;11.80;77.10
79055;DHT22;68452;47.186;-1.528;2023-03-24T06:32:08;11.80;77.00
79055;DHT22;68452;47.186;-1.528;2023-03-24T06:34:35;11.80;77.00
79055;DHT22;68452;47.186;-1.528;2023-03-24T06:37:01;11.90;76.70
79055;DHT22;68452;47.186;-1.528;2023-03-24T06:39:28;11.90;76.80
79055;DHT22;68452;47.186;-1.528;2023-03-24T06:41:54;11.90;77.00
79055;DHT22;68452;47.186;-1.528;2023-03-24T06:44:20;11.80;76.90
79055;DHT22;68452;47.186;-1.528;2023-03-24T06:46:46;11.80;76.80
79055;DHT22;68452;47.186;-1.528;2023-03-24T06:49:12;11.80;76.90
79055;DHT22;68452;47.186;-1.528;2023-03-24T06:51:37;11.90;77.00
79055;DHT22;68452;47.186;-1.528;2023-03-24T06:54:03;11.90;76.80
79055;DHT22;68452;47.186;-1.528;2023-03-24T06:56:29;11.90;77.00
79055;DHT22;68452;47.186;-1.528;2023-03-24T06:58:55;11.90;76.90
79055;DHT22;68452;47.186;-1.528;2023-03-24T07:01:22;11.90;77.10
79055;DHT22;68452;47.186;-1.528;2023-03-24T07:03:48;11.90;76.70
79055;DHT22;68452;47.186;-1.528;2023-03-24T07:06:14;11.90;76.50
79055;DHT22;68452;47.186;-1.528;2023-03-24T07:08:41;12.00;76.60
79055;DHT22;68452;47.186;-1.528;2023-03-24T07:11:07;12.00;76.70
79055;DHT22;68452;47.186;-1.528;2023-03-24T07:13:34;12.00;76.70
79055;DHT22;68452;47.186;-1.528;2023-03-24T07:16:00;12.00;76.40
79055;DHT22;68452;47.186;-1.528;2023-03-24T07:18:26;12.10;76.30
79055;DHT22;68452;47.186;-1.528;2023-03-24T07:20:52;12.10;76.20
79055;DHT22;68452;47.186;-1.528;2023-03-24T07:23:17;12.10;76.30
79055;DHT22;68452;47.186;-1.528;2023-03-24T07:25:43;12.10;76.60
79055;DHT22;68452;47.186;-1.528;2023-03-24T07:28:10;12.20;76.30
79055;DHT22;68452;47.186;-1.528;2023-03-24T07:30:36;12.20;76.30
79055;DHT22;68452;47.186;-1.528;2023-03-24T07:33:06;12.20;76.30
79055;DHT22;68452;47.186;-1.528;2023-03-24T07:35:34;12.30;76.10
79055;DHT22;68452;47.186;-1.528;2023-03-24T07:38:01;12.30;76.00
79055;DHT22;68452;47.186;-1.528;2023-03-24T07:40:27;12.30;75.80
79055;DHT22;68452;47.186;-1.528;2023-03-24T07:42:54;12.30;75.70
79055;DHT22;68452;47.186;-1.528;2023-03-24T07:45:24;12.40;75.10
79055;DHT22;68452;47.186;-1.528;2023-03-24T07:47:50;12.30;75.40
79055;DHT22;68452;47.186;-1.528;2023-03-24T07:50:16;12.40;75.10
79055;DHT22;68452;47.186;-1.528;2023-03-24T07:52:46;12.40;75.10
79055;DHT22;68452;47.186;-1.528;2023-03-24T07:55:12;12.40;75.30
79055;DHT22;68452;47.186;-1.528;2023-03-24T07:57:47;12.40;75.00
79055;DHT22;68452;47.186;-1.528;2023-03-24T08:00:13;12.40;74.70
79055;DHT22;68452;47.186;-1.528;2023-03-24T08:02:43;12.50;75.30
79055;DHT22;68452;47.186;-1.528;2023-03-24T08:05:10;12.50;75.50
79055;DHT22;68452;47.186;-1.528;2023-03-24T08:07:47;12.50;75.10
79055;DHT22;68452;47.186;-1.528;2023-03-24T08:10:29;12.50;74.70
79055;DHT22;68452;47.186;-1.528;2023-03-24T08:12:56;12.60;74.50
79055;DHT22;68452;47.186;-1.528;2023-03-24T08:15:22;12.60;74.30
79055;DHT22;68452;47.186;-1.528;2023-03-24T08:17:49;12.60;74.00
79055;DHT22;68452;47.186;-1.528;2023-03-24T08:20:16;12.60;74.20
79055;DHT22;68452;47.186;-1.528;2023-03-24T08:22:46;12.60;74.30
79055;DHT22;68452;47.186;-1.528;2023-03-24T08:25:16;12.60;74.80
79055;DHT22;68452;47.186;-1.528;2023-03-24T08:27:43;12.60;74.60
79055;DHT22;68452;47.186;-1.528;2023-03-24T08:30:13;12.60;74.40
79055;DHT22;68452;47.186;-1.528;2023-03-24T08:32:56;12.70;74.40
79055;DHT22;68452;47.186;-1.528;2023-03-24T08:35:29;12.70;74.30
79055;DHT22;68452;47.186;-1.528;2023-03-24T08:38:00;12.70;74.70
79055;DHT22;68452;47.186;-1.528;2023-03-24T08:40:28;12.80;75.30
79055;DHT22;68452;47.186;-1.528;2023-03-24T08:42:58;12.80;74.70
79055;DHT22;68452;47.186;-1.528;2023-03-24T08:45:27;12.80;74.40
79055;DHT22;68452;47.186;-1.528;2023-03-24T08:47:56;12.90;74.70
79055;DHT22;68452;47.186;-1.528;2023-03-24T08:50:25;12.90;74.40
79055;DHT22;68452;47.186;-1.528;2023-03-24T08:52:54;12.90;74.40
79055;DHT22;68452;47.186;-1.528;2023-03-24T08:55:21;12.90;74.10
79055;DHT22;68452;47.186;-1.528;2023-03-24T08:57:47;13.00;74.00
79055;DHT22;68452;47.186;-1.528;2023-03-24T09:00:14;13.00;73.70
79055;DHT22;68452;47.186;-1.528;2023-03-24T09:02:45;13.10;73.70
79055;DHT22;68452;47.186;-1.528;2023-03-24T09:05:11;13.10;73.90
79055;DHT22;68452;47.186;-1.528;2023-03-24T09:07:38;13.10;74.10
79055;DHT22;68452;47.186;-1.528;2023-03-24T09:10:05;13.10;73.40
79055;DHT22;68452;47.186;-1.528;2023-03-24T09:12:32;13.10;73.20
79055;DHT22;68452;47.186;-1.528;2023-03-24T09:14:58;13.10;73.20
79055;DHT22;68452;47.186;-1.528;2023-03-24T09:17:24;13.10;73.10
79055;DHT22;68452;47.186;-1.528;2023-03-24T09:19:49;13.10;74.10
79055;DHT22;68452;47.186;-1.528;2023-03-24T09:22:15;13.10;75.00
79055;DHT22;68452;47.186;-1.528;2023-03-24T09:24:41;13.10;74.90
79055;DHT22;68452;47.186;-1.528;2023-03-24T09:27:09;13.00;74.90
79055;DHT22;68452;47.186;-1.528;2023-03-24T09:29:35;13.00;74.40
79055;DHT22;68452;47.186;-1.528;2023-03-24T09:32:01;13.00;73.70
79055;DHT22;68452;47.186;-1.528;2023-03-24T09:34:27;13.00;72.60
79055;DHT22;68452;47.186;-1.528;2023-03-24T09:36:53;13.00;72.70
79055;DHT22;68452;47.186;-1.528;2023-03-24T09:39:18;13.00;72.70
79055;DHT22;68452;47.186;-1.528;2023-03-24T09:41:44;13.00;73.30
79055;DHT22;68452;47.186;-1.528;2023-03-24T09:46:46;13.20;73.10
79055;DHT22;68452;47.186;-1.528;2023-03-24T09:49:16;13.30;73.80
79055;DHT22;68452;47.186;-1.528;2023-03-24T09:51:45;13.40;71.20
79055;DHT22;68452;47.186;-1.528;2023-03-24T09:54:30;13.40;71.60
79055;DHT22;68452;47.186;-1.528;2023-03-24T09:56:57;13.50;71.80
79055;DHT22;68452;47.186;-1.528;2023-03-24T09:59:33;13.50;71.70
79055;DHT22;68452;47.186;-1.528;2023-03-24T10:02:00;13.50;71.70
79055;DHT22;68452;47.186;-1.528;2023-03-24T10:04:28;13.50;71.30
79055;DHT22;68452;47.186;-1.528;2023-03-24T10:07:08;13.50;71.50
79055;DHT22;68452;47.186;-1.528;2023-03-24T10:09:38;13.70;71.60
79055;DHT22;68452;47.186;-1.528;2023-03-24T10:15:03;13.70;69.20
79055;DHT22;68452;47.186;-1.528;2023-03-24T10:17:56;13.70;70.30
79055;DHT22;68452;47.186;-1.528;2023-03-24T10:20:43;13.80;70.20
79055;DHT22;68452;47.186;-1.528;2023-03-24T10:27:15;13.80;68.40
79055;DHT22;68452;47.186;-1.528;2023-03-24T10:31:49;14.00;67.90
79055;DHT22;68452;47.186;-1.528;2023-03-24T10:34:16;13.90;67.40
79055;DHT22;68452;47.186;-1.528;2023-03-24T10:36:43;14.00;68.10
79055;DHT22;68452;47.186;-1.528;2023-03-24T10:39:15;14.00;68.30
79055;DHT22;68452;47.186;-1.528;2023-03-24T10:41:42;14.00;67.80
79055;DHT22;68452;47.186;-1.528;2023-03-24T10:44:11;14.00;67.70
79055;DHT22;68452;47.186;-1.528;2023-03-24T10:46:47;13.90;67.10
79055;DHT22;68452;47.186;-1.528;2023-03-24T10:49:15;13.90;67.20
79055;DHT22;68452;47.186;-1.528;2023-03-24T10:51:46;13.90;68.30
79055;DHT22;68452;47.186;-1.528;2023-03-24T10:54:22;13.90;69.20
79055;DHT22;68452;47.186;-1.528;2023-03-24T11:02:19;14.30;68.00
79055;DHT22;68452;47.186;-1.528;2023-03-24T11:05:11;14.40;68.10
79055;DHT22;68452;47.186;-1.528;2023-03-24T11:07:40;14.40;67.10
79055;DHT22;68452;47.186;-1.528;2023-03-24T11:12:40;14.40;66.10
79055;DHT22;68452;47.186;-1.528;2023-03-24T11:17:36;14.30;66.20
79055;DHT22;68452;47.186;-1.528;2023-03-24T11:20:02;14.20;65.00
79055;DHT22;68452;47.186;-1.528;2023-03-24T11:22:32;14.20;65.00
79055;DHT22;68452;47.186;-1.528;2023-03-24T11:25:00;14.20;65.60
79055;DHT22;68452;47.186;-1.528;2023-03-24T11:27:28;14.20;66.50
79055;DHT22;68452;47.186;-1.528;2023-03-24T11:29:57;14.30;65.00
79055;DHT22;68452;47.186;-1.528;2023-03-24T11:32:25;14.60;64.80
79055;DHT22;68452;47.186;-1.528;2023-03-24T11:35:02;14.80;63.40
79055;DHT22;68452;47.186;-1.528;2023-03-24T11:37:35;14.90;63.50
79055;DHT22;68452;47.186;-1.528;2023-03-24T11:42:47;15.00;62.40
79055;DHT22;68452;47.186;-1.528;2023-03-24T11:45:39;15.00;62.80
79055;DHT22;68452;47.186;-1.528;2023-03-24T11:50:52;15.30;63.20
79055;DHT22;68452;47.186;-1.528;2023-03-24T11:53:27;15.30;62.80
79055;DHT22;68452;47.186;-1.528;2023-03-24T11:56:20;15.30;61.50
79055;DHT22;68452;47.186;-1.528;2023-03-24T11:58:54;15.30;60.90
79055;DHT22;68452;47.186;-1.528;2023-03-24T12:01:25;15.20;61.80
79055;DHT22;68452;47.186;-1.528;2023-03-24T12:04:08;15.20;62.10
79055;DHT22;68452;47.186;-1.528;2023-03-24T12:15:25;15.20;60.80
79055;DHT22;68452;47.186;-1.528;2023-03-24T12:18:07;15.20;61.20
79055;DHT22;68452;47.186;-1.528;2023-03-24T12:26:19;15.60;60.80
79055;DHT22;68452;47.186;-1.528;2023-03-24T12:28:57;15.60;60.50
79055;DHT22;68452;47.186;-1.528;2023-03-24T12:31:58;15.40;60.30
79055;DHT22;68452;47.186;-1.528;2023-03-24T12:42:46;15.40;59.00
79055;DHT22;68452;47.186;-1.528;2023-03-24T12:45:18;15.60;59.60
79055;DHT22;68452;47.186;-1.528;2023-03-24T12:48:10;15.60;58.20
79055;DHT22;68452;47.186;-1.528;2023-03-24T12:56:23;15.70;58.80
79055;DHT22;68452;47.186;-1.528;2023-03-24T12:59:34;15.80;59.80
79055;DHT22;68452;47.186;-1.528;2023-03-24T13:02:11;15.80;59.20
79055;DHT22;68452;47.186;-1.528;2023-03-24T13:04:42;15.70;58.90
79055;DHT22;68452;47.186;-1.528;2023-03-24T13:07:14;15.60;57.80
79055;DHT22;68452;47.186;-1.528;2023-03-24T13:09:46;15.80;59.30
79055;DHT22;68452;47.186;-1.528;2023-03-24T13:17:49;16.30;56.70
79055;DHT22;68452;47.186;-1.528;2023-03-24T13:20:33;16.10;57.10
79055;DHT22;68452;47.186;-1.528;2023-03-24T13:28:33;16.40;55.30
79055;DHT22;68452;47.186;-1.528;2023-03-24T13:31:01;16.50;56.00
79055;DHT22;68452;47.186;-1.528;2023-03-24T13:33:30;16.70;56.40
79055;DHT22;68452;47.186;-1.528;2023-03-24T13:36:21;16.90;56.80
79055;DHT22;68452;47.186;-1.528;2023-03-24T13:38:54;17.20;55.90
79055;DHT22;68452;47.186;-1.528;2023-03-24T13:41:24;17.20;54.80
79055;DHT22;68452;47.186;-1.528;2023-03-24T13:46:40;16.70;54.80
79055;DHT22;68452;47.186;-1.528;2023-03-24T13:49:11;16.60;55.10
79055;DHT22;68452;47.186;-1.528;2023-03-24T13:51:43;16.40;55.50
79055;DHT22;68452;47.186;-1.528;2023-03-24T13:54:16;16.30;57.30
79055;DHT22;68452;47.186;-1.528;2023-03-24T13:59:41;16.20;56.80
79055;DHT22;68452;47.186;-1.528;2023-03-24T14:02:23;16.10;57.50
79055;DHT22;68452;47.186;-1.528;2023-03-24T14:05:29;16.00;57.50
79055;DHT22;68452;47.186;-1.528;2023-03-24T14:10:40;16.60;56.10
79055;DHT22;68452;47.186;-1.528;2023-03-24T14:21:00;17.10;55.00
79055;DHT22;68452;47.186;-1.528;2023-03-24T14:23:34;18.00;53.20
79055;DHT22;68452;47.186;-1.528;2023-03-24T14:26:07;19.20;50.70
79055;DHT22;68452;47.186;-1.528;2023-03-24T14:28:42;19.20;49.20
79055;DHT22;68452;47.186;-1.528;2023-03-24T14:36:29;18.70;50.20
79055;DHT22;68452;47.186;-1.528;2023-03-24T14:41:34;19.70;49.60
79055;DHT22;68452;47.186;-1.528;2023-03-24T14:44:04;19.60;48.00
79055;DHT22;68452;47.186;-1.528;2023-03-24T14:46:39;19.40;49.10
79055;DHT22;68452;47.186;-1.528;2023-03-24T14:49:26;19.10;49.00
79055;DHT22;68452;47.186;-1.528;2023-03-24T14:54:43;18.30;50.70
79055;DHT22;68452;47.186;-1.528;2023-03-24T14:57:20;18.10;51.60
79055;DHT22;68452;47.186;-1.528;2023-03-24T15:02:48;17.80;51.30
79055;DHT22;68452;47.186;-1.528;2023-03-24T15:05:22;17.30;52.80
79055;DHT22;68452;47.186;-1.528;2023-03-24T15:08:16;17.00;53.90
79055;DHT22;68452;47.186;-1.528;2023-03-24T15:10:53;16.70;54.40
79055;DHT22;68452;47.186;-1.528;2023-03-24T15:15:54;16.50;56.00
79055;DHT22;68452;47.186;-1.528;2023-03-24T15:18:21;16.60;56.10
79055;DHT22;68452;47.186;-1.528;2023-03-24T15:20:48;16.70;54.80
79055;DHT22;68452;47.186;-1.528;2023-03-24T15:23:24;16.50;55.10
79055;DHT22;68452;47.186;-1.528;2023-03-24T15:25:51;16.30;56.20
79055;DHT22;68452;47.186;-1.528;2023-03-24T15:28:20;16.30;55.80
79055;DHT22;68452;47.186;-1.528;2023-03-24T15:30:48;16.20;55.90
79055;DHT22;68452;47.186;-1.528;2023-03-24T15:33:13;16.30;55.90
79055;DHT22;68452;47.186;-1.528;2023-03-24T15:35:40;16.20;56.20
79055;DHT22;68452;47.186;-1.528;2023-03-24T15:38:05;16.10;56.30
79055;DHT22;68452;47.186;-1.528;2023-03-24T15:40:34;15.90;56.00
79055;DHT22;68452;47.186;-1.528;2023-03-24T15:43:05;16.10;56.20
79055;DHT22;68452;47.186;-1.528;2023-03-24T15:45:42;16.10;55.80
79055;DHT22;68452;47.186;-1.528;2023-03-24T15:48:23;15.90;56.00
79055;DHT22;68452;47.186;-1.528;2023-03-24T15:51:04;15.70;57.10
79055;DHT22;68452;47.186;-1.528;2023-03-24T15:53:54;15.80;57.80
79055;DHT22;68452;47.186;-1.528;2023-03-24T15:56:28;16.00;58.10
79055;DHT22;68452;47.186;-1.528;2023-03-24T15:59:11;15.80;56.40
79055;DHT22;68452;47.186;-1.528;2023-03-24T16:01:39;15.70;57.20
79055;DHT22;68452;47.186;-1.528;2023-03-24T16:04:16;15.70;57.90
79055;DHT22;68452;47.186;-1.528;2023-03-24T16:06:52;15.60;58.10
79055;DHT22;68452;47.186;-1.528;2023-03-24T16:09:20;15.60;58.50
79055;DHT22;68452;47.186;-1.528;2023-03-24T16:11:47;15.60;59.20
79055;DHT22;68452;47.186;-1.528;2023-03-24T16:14:28;15.60;57.40
79055;DHT22;68452;47.186;-1.528;2023-03-24T16:16:58;15.60;57.90
79055;DHT22;68452;47.186;-1.528;2023-03-24T16:19:25;15.60;57.50
79055;DHT22;68452;47.186;-1.528;2023-03-24T16:21:52;15.50;58.00
79055;DHT22;68452;47.186;-1.528;2023-03-24T16:24:19;15.40;58.50
79055;DHT22;68452;47.186;-1.528;2023-03-24T16:26:45;15.30;58.50
79055;DHT22;68452;47.186;-1.528;2023-03-24T16:29:18;15.20;58.80
79055;DHT22;68452;47.186;-1.528;2023-03-24T16:31:46;15.20;59.10
79055;DHT22;68452;47.186;-1.528;2023-03-24T16:34:17;15.30;59.30
79055;DHT22;68452;47.186;-1.528;2023-03-24T16:36:44;15.30;59.80
79055;DHT22;68452;47.186;-1.528;2023-03-24T16:39:19;15.40;59.80
79055;DHT22;68452;47.186;-1.528;2023-03-24T16:41:46;15.20;59.70
79055;DHT22;68452;47.186;-1.528;2023-03-24T16:44:12;15.20;60.10
79055;DHT22;68452;47.186;-1.528;2023-03-24T16:46:39;15.10;60.50
79055;DHT22;68452;47.186;-1.528;2023-03-24T16:49:09;15.10;61.30
79055;DHT22;68452;47.186;-1.528;2023-03-24T16:51:38;15.10;61.30
79055;DHT22;68452;47.186;-1.528;2023-03-24T16:54:04;15.10;61.60
79055;DHT22;68452;47.186;-1.528;2023-03-24T16:56:32;15.10;61.60
79055;DHT22;68452;47.186;-1.528;2023-03-24T16:58:58;15.00;61.20
79055;DHT22;68452;47.186;-1.528;2023-03-24T17:01:29;15.00;61.10
79055;DHT22;68452;47.186;-1.528;2023-03-24T17:06:43;14.80;61.50
79055;DHT22;68452;47.186;-1.528;2023-03-24T17:09:09;14.70;61.90
79055;DHT22;68452;47.186;-1.528;2023-03-24T17:11:43;14.60;61.90
79055;DHT22;68452;47.186;-1.528;2023-03-24T17:14:09;14.60;62.60
79055;DHT22;68452;47.186;-1.528;2023-03-24T17:16:41;14.50;62.80
79055;DHT22;68452;47.186;-1.528;2023-03-24T17:19:14;14.50;62.70
79055;DHT22;68452;47.186;-1.528;2023-03-24T17:21:55;14.40;63.10
79055;DHT22;68452;47.186;-1.528;2023-03-24T17:24:22;14.40;63.50
79055;DHT22;68452;47.186;-1.528;2023-03-24T17:26:48;14.40;63.50
79055;DHT22;68452;47.186;-1.528;2023-03-24T17:29:14;14.30;63.60
79055;DHT22;68452;47.186;-1.528;2023-03-24T17:31:40;14.20;63.50
79055;DHT22;68452;47.186;-1.528;2023-03-24T17:34:11;14.20;63.60
79055;DHT22;68452;47.186;-1.528;2023-03-24T17:36:37;14.20;64.20
79055;DHT22;68452;47.186;-1.528;2023-03-24T17:39:03;14.20;64.30
79055;DHT22;68452;47.186;-1.528;2023-03-24T17:41:30;14.10;65.10
79055;DHT22;68452;47.186;-1.528;2023-03-24T17:43:56;14.00;66.80
79055;DHT22;68452;47.186;-1.528;2023-03-24T17:46:22;13.90;68.40
79055;DHT22;68452;47.186;-1.528;2023-03-24T17:48:47;13.80;69.20
79055;DHT22;68452;47.186;-1.528;2023-03-24T17:51:13;13.80;70.10
79055;DHT22;68452;47.186;-1.528;2023-03-24T17:53:39;13.70;71.60
79055;DHT22;68452;47.186;-1.528;2023-03-24T17:56:05;13.40;73.10
79055;DHT22;68452;47.186;-1.528;2023-03-24T17:58:33;13.10;74.00
79055;DHT22;68452;47.186;-1.528;2023-03-24T18:01:01;12.80;73.80
79055;DHT22;68452;47.186;-1.528;2023-03-24T18:03:27;12.50;74.60
79055;DHT22;68452;47.186;-1.528;2023-03-24T18:05:55;12.30;75.10
79055;DHT22;68452;47.186;-1.528;2023-03-24T18:08:21;12.20;74.80
79055;DHT22;68452;47.186;-1.528;2023-03-24T18:10:46;12.10;75.10
79055;DHT22;68452;47.186;-1.528;2023-03-24T18:13:12;12.10;74.60
79055;DHT22;68452;47.186;-1.528;2023-03-24T18:15:41;12.00;74.10